sensor_id;sensor_type;location;lat;lon;timestamp;P1;durP1;ratioP1;P2;durP2;ratioP2
64075;SDS011;50327;51.328;12.324;2023-09-12T00:01:56;19.48;;;6.80;;
64075;SDS011;50327;51.328;12.324;2023-09-12T00:04:21;26.30;;;7.17;;
64075;SDS011;50327;51.328;12.324;2023-09-12T00:06:46;23.13;;;7.50;;
64075;SDS011;50327;51.328;12.324;2023-09-12T00:09:11;26.65;;;6.70;;
64075;SDS011;50327;51.328;12.324;2023-09-12T00:11:37;21.55;;;6.10;;
64075;SDS011;50327;51.328;12.324;2023-09-12T00:14:02;13.05;;;6.85;;
64075;SDS011;50327;51.328;12.324;2023-09-12T00:16:28;20.83;;;7.15;;
64075;SDS011;50327;51.328;12.324;2023-09-12T00:18:53;20.38;;;8.63;;
64075;SDS011;50327;51.328;12.324;2023-09-12T00:21:18;17.27;;;6.88;;
64075;SDS011;50327;51.328;12.324;2023-09-12T00:23:43;21.42;;;7.00;;
64075;SDS011;50327;51.328;12.324;2023-09-12T00:26:08;18.17;;;7.20;;
64075;SDS011;50327;51.328;12.324;2023-09-12T00:28:34;25.33;;;7.82;;
64075;SDS011;50327;51.328;12.324;2023-09-12T00:30:59;20.50;;;8.02;;
64075;SDS011;50327;51.328;12.324;2023-09-12T00:33:24;13.52;;;7.60;;
64075;SDS011;50327;51.328;12.324;2023-09-12T00:35:52;22.55;;;7.28;;
64075;SDS011;50327;51.328;12.324;2023-09-12T00:38:18;22.95;;;8.80;;
64075;SDS011;50327;51.328;12.324;2023-09-12T00:40:43;18.02;;;7.28;;
64075;SDS011;50327;51.328;12.324;2023-09-12T00:43:08;22.03;;;7.43;;
64075;SDS011;50327;51.328;12.324;2023-09-12T00:45:33;16.08;;;7.53;;
64075;SDS011;50327;51.328;12.324;2023-09-12T00:47:58;20.73;;;7.72;;
64075;SDS011;50327;51.328;12.324;2023-09-12T00:50:28;17.13;;;7.15;;
64075;SDS011;50327;51.328;12.324;2023-09-12T00:52:58;19.85;;;7.70;;
64075;SDS011;50327;51.328;12.324;2023-09-12T00:55:24;16.13;;;7.15;;
64075;SDS011;50327;51.328;12.324;2023-09-12T00:57:49;22.95;;;6.80;;
64075;SDS011;50327;51.328;12.324;2023-09-12T01:00:16;21.80;;;7.35;;
64075;SDS011;50327;51.328;12.324;2023-09-12T01:02:42;17.48;;;6.82;;
64075;SDS011;50327;51.328;12.324;2023-09-12T01:05:07;19.17;;;7.32;;
64075;SDS011;50327;51.328;12.324;2023-09-12T01:07:34;12.68;;;6.90;;
64075;SDS011;50327;51.328;12.324;2023-09-12T01:09:59;16.42;;;7.22;;
64075;SDS011;50327;51.328;12.324;2023-09-12T01:12:24;18.77;;;7.45;;
64075;SDS011;50327;51.328;12.324;2023-09-12T01:14:50;14.05;;;7.25;;
64075;SDS011;50327;51.328;12.324;2023-09-12T01:17:15;16.23;;;6.93;;
64075;SDS011;50327;51.328;12.324;2023-09-12T01:19:40;20.25;;;7.00;;
64075;SDS011;50327;51.328;12.324;2023-09-12T01:24:52;21.52;;;6.80;;
64075;SDS011;50327;51.328;12.324;2023-09-12T01:27:37;16.27;;;6.68;;
64075;SDS011;50327;51.328;12.324;2023-09-12T01:30:04;22.30;;;7.43;;
64075;SDS011;50327;51.328;12.324;2023-09-12T01:32:30;17.77;;;6.82;;
64075;SDS011;50327;51.328;12.324;2023-09-12T01:34:56;17.80;;;6.55;;
64075;SDS011;50327;51.328;12.324;2023-09-12T01:37:21;13.77;;;6.88;;
64075;SDS011;50327;51.328;12.324;2023-09-12T01:39:46;28.13;;;8.27;;
64075;SDS011;50327;51.328;12.324;2023-09-12T01:42:13;15.70;;;6.60;;
64075;SDS011;50327;51.328;12.324;2023-09-12T01:44:39;22.17;;;7.15;;
64075;SDS011;50327;51.328;12.324;2023-09-12T01:47:06;18.80;;;7.15;;
64075;SDS011;50327;51.328;12.324;2023-09-12T01:49:31;22.73;;;8.15;;
64075;SDS011;50327;51.328;12.324;2023-09-12T01:51:57;13.43;;;6.80;;
64075;SDS011;50327;51.328;12.324;2023-09-12T01:54:24;20.38;;;7.32;;
64075;SDS011;50327;51.328;12.324;2023-09-12T01:56:50;24.33;;;6.60;;
64075;SDS011;50327;51.328;12.324;2023-09-12T01:59:15;11.50;;;5.60;;
64075;SDS011;50327;51.328;12.324;2023-09-12T02:01:40;13.32;;;5.45;;
64075;SDS011;50327;51.328;12.324;2023-09-12T02:04:07;12.63;;;6.38;;
64075;SDS011;50327;51.328;12.324;2023-09-12T02:06:34;19.83;;;6.40;;
64075;SDS011;50327;51.328;12.324;2023-09-12T02:08:59;11.02;;;6.10;;
64075;SDS011;50327;51.328;12.324;2023-09-12T02:11:25;13.65;;;6.13;;
64075;SDS011;50327;51.328;12.324;2023-09-12T02:13:51;13.90;;;6.32;;
64075;SDS011;50327;51.328;12.324;2023-09-12T02:16:16;17.48;;;6.95;;
64075;SDS011;50327;51.328;12.324;2023-09-12T02:18:41;21.38;;;7.05;;
64075;SDS011;50327;51.328;12.324;2023-09-12T02:21:07;14.95;;;6.50;;
64075;SDS011;50327;51.328;12.324;2023-09-12T02:23:32;18.85;;;6.45;;
64075;SDS011;50327;51.328;12.324;2023-09-12T02:25:57;25.88;;;7.25;;
64075;SDS011;50327;51.328;12.324;2023-09-12T02:28:22;14.88;;;6.38;;
64075;SDS011;50327;51.328;12.324;2023-09-12T02:30:47;11.68;;;5.90;;
64075;SDS011;50327;51.328;12.324;2023-09-12T02:33:13;15.48;;;7.07;;
64075;SDS011;50327;51.328;12.324;2023-09-12T02:35:38;15.52;;;6.25;;
64075;SDS011;50327;51.328;12.324;2023-09-12T02:38:03;20.30;;;6.88;;
64075;SDS011;50327;51.328;12.324;2023-09-12T02:40:28;15.48;;;7.00;;
64075;SDS011;50327;51.328;12.324;2023-09-12T02:42:53;21.25;;;7.00;;
64075;SDS011;50327;51.328;12.324;2023-09-12T02:45:19;18.08;;;7.38;;
64075;SDS011;50327;51.328;12.324;2023-09-12T02:47:44;15.05;;;6.80;;
64075;SDS011;50327;51.328;12.324;2023-09-12T02:50:11;17.75;;;7.47;;
64075;SDS011;50327;51.328;12.324;2023-09-12T02:52:36;15.68;;;7.40;;
64075;SDS011;50327;51.328;12.324;2023-09-12T02:55:02;14.55;;;7.50;;
64075;SDS011;50327;51.328;12.324;2023-09-12T02:57:27;16.90;;;7.20;;
64075;SDS011;50327;51.328;12.324;2023-09-12T02:59:52;13.60;;;7.30;;
64075;SDS011;50327;51.328;12.324;2023-09-12T03:02:18;26.30;;;7.83;;
64075;SDS011;50327;51.328;12.324;2023-09-12T03:04:43;14.65;;;7.70;;
64075;SDS011;50327;51.328;12.324;2023-09-12T03:07:08;17.50;;;7.75;;
64075;SDS011;50327;51.328;12.324;2023-09-12T03:09:33;18.48;;;7.65;;
64075;SDS011;50327;51.328;12.324;2023-09-12T03:12:00;19.25;;;7.45;;
64075;SDS011;50327;51.328;12.324;2023-09-12T03:14:27;15.75;;;7.45;;
64075;SDS011;50327;51.328;12.324;2023-09-12T03:16:52;20.15;;;7.97;;
64075;SDS011;50327;51.328;12.324;2023-09-12T03:19:18;14.70;;;7.68;;
64075;SDS011;50327;51.328;12.324;2023-09-12T03:21:43;20.42;;;7.13;;
64075;SDS011;50327;51.328;12.324;2023-09-12T03:24:08;13.85;;;7.65;;
64075;SDS011;50327;51.328;12.324;2023-09-12T03:26:34;21.17;;;8.00;;
64075;SDS011;50327;51.328;12.324;2023-09-12T03:28:59;25.20;;;8.80;;
64075;SDS011;50327;51.328;12.324;2023-09-12T03:31:24;18.58;;;8.73;;
64075;SDS011;50327;51.328;12.324;2023-09-12T03:33:50;16.15;;;8.07;;
64075;SDS011;50327;51.328;12.324;2023-09-12T03:36:16;15.32;;;8.32;;
64075;SDS011;50327;51.328;12.324;2023-09-12T03:38:42;20.35;;;8.43;;
64075;SDS011;50327;51.328;12.324;2023-09-12T03:41:08;17.98;;;8.35;;
64075;SDS011;50327;51.328;12.324;2023-09-12T03:43:33;12.65;;;7.20;;
64075;SDS011;50327;51.328;12.324;2023-09-12T03:45:58;25.63;;;8.90;;
64075;SDS011;50327;51.328;12.324;2023-09-12T03:48:23;18.65;;;8.27;;
64075;SDS011;50327;51.328;12.324;2023-09-12T03:50:49;12.70;;;6.93;;
64075;SDS011;50327;51.328;12.324;2023-09-12T03:53:14;14.93;;;8.02;;
64075;SDS011;50327;51.328;12.324;2023-09-12T03:55:40;19.55;;;7.72;;
64075;SDS011;50327;51.328;12.324;2023-09-12T03:58:05;18.73;;;7.45;;
64075;SDS011;50327;51.328;12.324;2023-09-12T04:00:30;17.17;;;7.28;;
64075;SDS011;50327;51.328;12.324;2023-09-12T04:02:56;13.48;;;7.30;;
64075;SDS011;50327;51.328;12.324;2023-09-12T04:05:21;15.30;;;7.63;;
64075;SDS011;50327;51.328;12.324;2023-09-12T04:07:46;14.68;;;7.72;;
64075;SDS011;50327;51.328;12.324;2023-09-12T04:10:12;15.10;;;7.75;;
64075;SDS011;50327;51.328;12.324;2023-09-12T04:12:37;13.98;;;7.38;;
64075;SDS011;50327;51.328;12.324;2023-09-12T04:15:02;18.25;;;8.48;;
64075;SDS011;50327;51.328;12.324;2023-09-12T04:17:27;15.13;;;7.75;;
64075;SDS011;50327;51.328;12.324;2023-09-12T04:19:53;18.00;;;7.07;;
64075;SDS011;50327;51.328;12.324;2023-09-12T04:22:18;20.30;;;10.07;;
64075;SDS011;50327;51.328;12.324;2023-09-12T04:24:43;14.85;;;7.15;;
64075;SDS011;50327;51.328;12.324;2023-09-12T04:27:08;15.13;;;7.50;;
64075;SDS011;50327;51.328;12.324;2023-09-12T04:29:33;16.25;;;8.35;;
64075;SDS011;50327;51.328;12.324;2023-09-12T04:32:00;17.20;;;7.43;;
64075;SDS011;50327;51.328;12.324;2023-09-12T04:34:26;16.08;;;8.00;;
64075;SDS011;50327;51.328;12.324;2023-09-12T04:36:52;16.17;;;7.60;;
64075;SDS011;50327;51.328;12.324;2023-09-12T04:39:17;21.85;;;7.63;;
64075;SDS011;50327;51.328;12.324;2023-09-12T04:41:42;18.75;;;7.15;;
64075;SDS011;50327;51.328;12.324;2023-09-12T04:44:07;18.30;;;7.85;;
64075;SDS011;50327;51.328;12.324;2023-09-12T04:46:33;13.93;;;7.43;;
64075;SDS011;50327;51.328;12.324;2023-09-12T04:48:58;19.35;;;8.75;;
64075;SDS011;50327;51.328;12.324;2023-09-12T04:51:24;15.57;;;8.60;;
64075;SDS011;50327;51.328;12.324;2023-09-12T04:53:49;15.82;;;7.93;;
64075;SDS011;50327;51.328;12.324;2023-09-12T04:56:16;30.00;;;9.90;;
64075;SDS011;50327;51.328;12.324;2023-09-12T04:58:42;18.92;;;9.18;;
64075;SDS011;50327;51.328;12.324;2023-09-12T05:01:07;14.52;;;7.68;;
64075;SDS011;50327;51.328;12.324;2023-09-12T05:03:32;16.70;;;8.75;;
64075;SDS011;50327;51.328;12.324;2023-09-12T05:05:58;28.13;;;9.35;;
64075;SDS011;50327;51.328;12.324;2023-09-12T05:08:23;15.13;;;7.65;;
64075;SDS011;50327;51.328;12.324;2023-09-12T05:10:49;15.50;;;7.95;;
64075;SDS011;50327;51.328;12.324;2023-09-12T05:13:14;13.98;;;7.20;;
64075;SDS011;50327;51.328;12.324;2023-09-12T05:15:40;18.95;;;8.57;;
64075;SDS011;50327;51.328;12.324;2023-09-12T05:18:05;18.95;;;8.25;;
64075;SDS011;50327;51.328;12.324;2023-09-12T05:20:31;17.70;;;7.88;;
64075;SDS011;50327;51.328;12.324;2023-09-12T05:22:56;13.40;;;8.40;;
64075;SDS011;50327;51.328;12.324;2023-09-12T05:25:22;25.35;;;8.40;;
64075;SDS011;50327;51.328;12.324;2023-09-12T05:27:47;18.73;;;8.23;;
64075;SDS011;50327;51.328;12.324;2023-09-12T05:30:12;17.90;;;8.27;;
64075;SDS011;50327;51.328;12.324;2023-09-12T05:32:38;18.33;;;8.13;;
64075;SDS011;50327;51.328;12.324;2023-09-12T05:35:03;20.95;;;7.85;;
64075;SDS011;50327;51.328;12.324;2023-09-12T05:37:29;19.45;;;8.65;;
64075;SDS011;50327;51.328;12.324;2023-09-12T05:39:54;18.02;;;8.05;;
64075;SDS011;50327;51.328;12.324;2023-09-12T05:42:19;19.20;;;7.45;;
64075;SDS011;50327;51.328;12.324;2023-09-12T05:44:46;28.38;;;8.85;;
64075;SDS011;50327;51.328;12.324;2023-09-12T05:47:11;17.73;;;7.85;;
64075;SDS011;50327;51.328;12.324;2023-09-12T05:49:36;26.38;;;8.40;;
64075;SDS011;50327;51.328;12.324;2023-09-12T05:52:02;17.90;;;8.23;;
64075;SDS011;50327;51.328;12.324;2023-09-12T05:54:27;21.67;;;8.60;;
64075;SDS011;50327;51.328;12.324;2023-09-12T05:56:52;14.32;;;8.43;;
64075;SDS011;50327;51.328;12.324;2023-09-12T05:59:19;26.38;;;8.38;;
64075;SDS011;50327;51.328;12.324;2023-09-12T06:01:44;26.25;;;9.02;;
64075;SDS011;50327;51.328;12.324;2023-09-12T06:04:10;16.58;;;8.23;;
64075;SDS011;50327;51.328;12.324;2023-09-12T06:06:35;28.08;;;8.88;;
64075;SDS011;50327;51.328;12.324;2023-09-12T06:09:00;17.63;;;8.35;;
64075;SDS011;50327;51.328;12.324;2023-09-12T06:11:26;17.77;;;8.75;;
64075;SDS011;50327;51.328;12.324;2023-09-12T06:13:51;18.10;;;8.57;;
64075;SDS011;50327;51.328;12.324;2023-09-12T06:16:16;13.63;;;8.05;;
64075;SDS011;50327;51.328;12.324;2023-09-12T06:18:41;21.27;;;10.43;;
64075;SDS011;50327;51.328;12.324;2023-09-12T06:21:07;21.50;;;8.77;;
64075;SDS011;50327;51.328;12.324;2023-09-12T06:23:33;38.47;;;8.32;;
64075;SDS011;50327;51.328;12.324;2023-09-12T06:25:59;18.70;;;9.13;;
64075;SDS011;50327;51.328;12.324;2023-09-12T06:28:27;30.42;;;8.68;;
64075;SDS011;50327;51.328;12.324;2023-09-12T06:30:53;24.83;;;8.05;;
64075;SDS011;50327;51.328;12.324;2023-09-12T06:33:18;29.15;;;8.10;;
64075;SDS011;50327;51.328;12.324;2023-09-12T06:35:43;22.45;;;8.30;;
64075;SDS011;50327;51.328;12.324;2023-09-12T06:38:08;21.25;;;7.85;;
64075;SDS011;50327;51.328;12.324;2023-09-12T06:40:34;20.30;;;8.02;;
64075;SDS011;50327;51.328;12.324;2023-09-12T06:42:59;24.35;;;7.82;;
64075;SDS011;50327;51.328;12.324;2023-09-12T06:45:24;22.45;;;8.38;;
64075;SDS011;50327;51.328;12.324;2023-09-12T06:47:49;21.50;;;8.23;;
64075;SDS011;50327;51.328;12.324;2023-09-12T06:50:15;23.85;;;8.32;;
64075;SDS011;50327;51.328;12.324;2023-09-12T06:52:40;20.60;;;7.60;;
64075;SDS011;50327;51.328;12.324;2023-09-12T06:55:05;35.55;;;7.93;;
64075;SDS011;50327;51.328;12.324;2023-09-12T06:57:32;26.25;;;8.43;;
64075;SDS011;50327;51.328;12.324;2023-09-12T06:59:57;25.97;;;9.93;;
64075;SDS011;50327;51.328;12.324;2023-09-12T07:02:23;31.10;;;8.00;;
64075;SDS011;50327;51.328;12.324;2023-09-12T07:04:48;20.17;;;7.53;;
64075;SDS011;50327;51.328;12.324;2023-09-12T07:07:14;38.88;;;8.93;;
64075;SDS011;50327;51.328;12.324;2023-09-12T07:09:40;16.63;;;8.27;;
64075;SDS011;50327;51.328;12.324;2023-09-12T07:12:05;20.98;;;7.75;;
64075;SDS011;50327;51.328;12.324;2023-09-12T07:14:30;26.05;;;8.82;;
64075;SDS011;50327;51.328;12.324;2023-09-12T07:16:56;24.23;;;8.80;;
64075;SDS011;50327;51.328;12.324;2023-09-12T07:19:21;23.65;;;8.50;;
64075;SDS011;50327;51.328;12.324;2023-09-12T07:21:46;22.45;;;8.50;;
64075;SDS011;50327;51.328;12.324;2023-09-12T07:24:12;27.75;;;8.05;;
64075;SDS011;50327;51.328;12.324;2023-09-12T07:26:37;21.27;;;7.93;;
64075;SDS011;50327;51.328;12.324;2023-09-12T07:29:03;29.08;;;7.63;;
64075;SDS011;50327;51.328;12.324;2023-09-12T07:31:30;29.73;;;8.05;;
64075;SDS011;50327;51.328;12.324;2023-09-12T07:33:55;19.00;;;7.93;;
64075;SDS011;50327;51.328;12.324;2023-09-12T07:36:20;20.45;;;7.65;;
64075;SDS011;50327;51.328;12.324;2023-09-12T07:38:46;29.02;;;7.90;;
64075;SDS011;50327;51.328;12.324;2023-09-12T07:41:12;25.55;;;6.95;;
64075;SDS011;50327;51.328;12.324;2023-09-12T07:43:37;24.20;;;7.32;;
64075;SDS011;50327;51.328;12.324;2023-09-12T07:46:03;34.75;;;7.53;;
64075;SDS011;50327;51.328;12.324;2023-09-12T07:48:28;23.23;;;7.38;;
64075;SDS011;50327;51.328;12.324;2023-09-12T07:50:54;19.02;;;6.90;;
64075;SDS011;50327;51.328;12.324;2023-09-12T07:53:19;20.75;;;7.65;;
64075;SDS011;50327;51.328;12.324;2023-09-12T07:55:44;20.10;;;7.32;;
64075;SDS011;50327;51.328;12.324;2023-09-12T07:58:13;26.73;;;8.15;;
64075;SDS011;50327;51.328;12.324;2023-09-12T08:00:39;18.33;;;6.45;;
64075;SDS011;50327;51.328;12.324;2023-09-12T08:03:04;21.40;;;7.13;;
64075;SDS011;50327;51.328;12.324;2023-09-12T08:05:29;23.58;;;8.57;;
64075;SDS011;50327;51.328;12.324;2023-09-12T08:07:54;20.25;;;8.20;;
64075;SDS011;50327;51.328;12.324;2023-09-12T08:10:20;21.77;;;8.68;;
64075;SDS011;50327;51.328;12.324;2023-09-12T08:12:45;33.38;;;10.63;;
64075;SDS011;50327;51.328;12.324;2023-09-12T08:15:10;18.87;;;8.47;;
64075;SDS011;50327;51.328;12.324;2023-09-12T08:17:35;22.58;;;8.77;;
64075;SDS011;50327;51.328;12.324;2023-09-12T08:20:01;28.88;;;9.63;;
64075;SDS011;50327;51.328;12.324;2023-09-12T08:22:26;21.65;;;9.30;;
64075;SDS011;50327;51.328;12.324;2023-09-12T08:24:51;34.08;;;10.48;;
64075;SDS011;50327;51.328;12.324;2023-09-12T08:27:16;29.42;;;9.40;;
64075;SDS011;50327;51.328;12.324;2023-09-12T08:29:42;21.92;;;9.95;;
64075;SDS011;50327;51.328;12.324;2023-09-12T08:32:09;29.75;;;11.13;;
64075;SDS011;50327;51.328;12.324;2023-09-12T08:34:34;27.02;;;10.05;;
64075;SDS011;50327;51.328;12.324;2023-09-12T08:37:00;25.83;;;10.48;;
64075;SDS011;50327;51.328;12.324;2023-09-12T08:39:27;24.80;;;10.20;;
64075;SDS011;50327;51.328;12.324;2023-09-12T08:41:53;34.88;;;10.85;;
64075;SDS011;50327;51.328;12.324;2023-09-12T08:44:18;33.38;;;9.80;;
64075;SDS011;50327;51.328;12.324;2023-09-12T08:46:44;19.10;;;10.18;;
64075;SDS011;50327;51.328;12.324;2023-09-12T08:49:10;27.52;;;11.10;;
64075;SDS011;50327;51.328;12.324;2023-09-12T08:51:39;32.42;;;9.43;;
64075;SDS011;50327;51.328;12.324;2023-09-12T08:54:05;24.55;;;11.35;;
64075;SDS011;50327;51.328;12.324;2023-09-12T08:56:30;21.45;;;11.60;;
64075;SDS011;50327;51.328;12.324;2023-09-12T08:58:57;29.05;;;12.55;;
64075;SDS011;50327;51.328;12.324;2023-09-12T09:01:22;34.35;;;12.00;;
64075;SDS011;50327;51.328;12.324;2023-09-12T09:03:48;19.73;;;10.93;;
64075;SDS011;50327;51.328;12.324;2023-09-12T09:06:14;29.05;;;12.15;;
64075;SDS011;50327;51.328;12.324;2023-09-12T09:08:40;24.30;;;12.57;;
64075;SDS011;50327;51.328;12.324;2023-09-12T09:11:06;37.10;;;12.45;;
64075;SDS011;50327;51.328;12.324;2023-09-12T09:13:32;33.47;;;12.57;;
64075;SDS011;50327;51.328;12.324;2023-09-12T09:21:23;26.63;;;11.07;;
64075;SDS011;50327;51.328;12.324;2023-09-12T09:23:50;24.23;;;12.38;;
64075;SDS011;50327;51.328;12.324;2023-09-12T09:26:15;29.92;;;12.85;;
64075;SDS011;50327;51.328;12.324;2023-09-12T09:28:40;33.00;;;11.75;;
64075;SDS011;50327;51.328;12.324;2023-09-12T09:31:14;26.77;;;11.40;;
64075;SDS011;50327;51.328;12.324;2023-09-12T09:33:40;35.67;;;12.27;;
64075;SDS011;50327;51.328;12.324;2023-09-12T09:36:06;28.10;;;11.38;;
64075;SDS011;50327;51.328;12.324;2023-09-12T09:38:31;24.05;;;11.38;;
64075;SDS011;50327;51.328;12.324;2023-09-12T09:40:59;27.90;;;12.88;;
64075;SDS011;50327;51.328;12.324;2023-09-12T09:43:24;28.35;;;12.45;;
64075;SDS011;50327;51.328;12.324;2023-09-12T09:45:50;29.02;;;12.75;;
64075;SDS011;50327;51.328;12.324;2023-09-12T09:48:22;24.23;;;12.57;;
64075;SDS011;50327;51.328;12.324;2023-09-12T09:50:49;25.58;;;11.85;;
64075;SDS011;50327;51.328;12.324;2023-09-12T09:53:14;26.23;;;11.95;;
64075;SDS011;50327;51.328;12.324;2023-09-12T09:55:39;31.40;;;11.68;;
64075;SDS011;50327;51.328;12.324;2023-09-12T09:58:05;36.72;;;12.55;;
64075;SDS011;50327;51.328;12.324;2023-09-12T10:00:31;23.58;;;13.20;;
64075;SDS011;50327;51.328;12.324;2023-09-12T10:02:58;39.92;;;11.73;;
64075;SDS011;50327;51.328;12.324;2023-09-12T10:05:24;36.67;;;10.90;;
64075;SDS011;50327;51.328;12.324;2023-09-12T10:07:50;32.67;;;11.18;;
64075;SDS011;50327;51.328;12.324;2023-09-12T10:10:16;35.75;;;11.57;;
64075;SDS011;50327;51.328;12.324;2023-09-12T10:13:03;32.95;;;11.20;;
64075;SDS011;50327;51.328;12.324;2023-09-12T10:15:28;30.83;;;11.57;;
64075;SDS011;50327;51.328;12.324;2023-09-12T10:17:58;23.23;;;10.50;;
64075;SDS011;50327;51.328;12.324;2023-09-12T10:20:42;26.50;;;11.45;;
64075;SDS011;50327;51.328;12.324;2023-09-12T10:23:19;27.48;;;9.80;;
64075;SDS011;50327;51.328;12.324;2023-09-12T10:25:45;28.67;;;10.32;;
64075;SDS011;50327;51.328;12.324;2023-09-12T10:28:10;25.20;;;10.48;;
64075;SDS011;50327;51.328;12.324;2023-09-12T10:30:35;30.17;;;10.75;;
64075;SDS011;50327;51.328;12.324;2023-09-12T10:35:36;30.48;;;9.90;;
64075;SDS011;50327;51.328;12.324;2023-09-12T10:38:02;24.25;;;9.68;;
64075;SDS011;50327;51.328;12.324;2023-09-12T10:42:56;18.50;;;9.05;;
64075;SDS011;50327;51.328;12.324;2023-09-12T10:45:22;20.77;;;9.13;;
64075;SDS011;50327;51.328;12.324;2023-09-12T10:47:47;26.92;;;8.98;;
64075;SDS011;50327;51.328;12.324;2023-09-12T10:50:12;26.52;;;9.18;;
64075;SDS011;50327;51.328;12.324;2023-09-12T10:52:39;19.67;;;9.07;;
64075;SDS011;50327;51.328;12.324;2023-09-12T10:55:06;34.97;;;9.98;;
64075;SDS011;50327;51.328;12.324;2023-09-12T10:57:31;23.38;;;9.20;;
64075;SDS011;50327;51.328;12.324;2023-09-12T11:02:36;29.33;;;8.52;;
64075;SDS011;50327;51.328;12.324;2023-09-12T11:05:05;31.77;;;9.07;;
64075;SDS011;50327;51.328;12.324;2023-09-12T11:10:38;21.80;;;9.60;;
64075;SDS011;50327;51.328;12.324;2023-09-12T11:12:48;38.90;;;9.30;;
64075;SDS011;50327;51.328;12.324;2023-09-12T11:15:14;24.90;;;8.63;;
64075;SDS011;50327;51.328;12.324;2023-09-12T11:17:44;27.85;;;7.97;;
64075;SDS011;50327;51.328;12.324;2023-09-12T11:20:10;19.50;;;8.50;;
64075;SDS011;50327;51.328;12.324;2023-09-12T11:22:47;36.45;;;8.93;;
64075;SDS011;50327;51.328;12.324;2023-09-12T11:25:25;29.33;;;8.10;;
64075;SDS011;50327;51.328;12.324;2023-09-12T11:30:20;21.77;;;7.72;;
64075;SDS011;50327;51.328;12.324;2023-09-12T11:32:46;44.72;;;8.30;;
64075;SDS011;50327;51.328;12.324;2023-09-12T11:35:13;30.63;;;8.82;;
64075;SDS011;50327;51.328;12.324;2023-09-12T11:37:38;21.05;;;7.25;;
64075;SDS011;50327;51.328;12.324;2023-09-12T11:42:40;18.20;;;7.97;;
64075;SDS011;50327;51.328;12.324;2023-09-12T11:45:10;26.00;;;7.75;;
64075;SDS011;50327;51.328;12.324;2023-09-12T11:47:41;21.73;;;8.30;;
64075;SDS011;50327;51.328;12.324;2023-09-12T11:50:06;18.30;;;7.35;;
64075;SDS011;50327;51.328;12.324;2023-09-12T11:52:35;20.42;;;7.63;;
64075;SDS011;50327;51.328;12.324;2023-09-12T11:55:00;20.83;;;7.15;;
64075;SDS011;50327;51.328;12.324;2023-09-12T11:57:26;41.13;;;8.03;;
64075;SDS011;50327;51.328;12.324;2023-09-12T11:59:51;25.20;;;8.45;;
64075;SDS011;50327;51.328;12.324;2023-09-12T12:02:17;23.50;;;7.82;;
64075;SDS011;50327;51.328;12.324;2023-09-12T12:04:43;25.80;;;8.18;;
64075;SDS011;50327;51.328;12.324;2023-09-12T12:07:09;18.63;;;7.35;;
64075;SDS011;50327;51.328;12.324;2023-09-12T12:09:35;24.45;;;7.65;;
64075;SDS011;50327;51.328;12.324;2023-09-12T12:12:04;21.98;;;8.13;;
64075;SDS011;50327;51.328;12.324;2023-09-12T12:14:33;20.25;;;7.53;;
64075;SDS011;50327;51.328;12.324;2023-09-12T12:17:04;20.75;;;7.15;;
64075;SDS011;50327;51.328;12.324;2023-09-12T12:19:30;23.52;;;7.07;;
64075;SDS011;50327;51.328;12.324;2023-09-12T12:21:55;26.15;;;7.70;;
64075;SDS011;50327;51.328;12.324;2023-09-12T12:24:20;24.30;;;6.78;;
64075;SDS011;50327;51.328;12.324;2023-09-12T12:26:46;24.00;;;7.10;;
64075;SDS011;50327;51.328;12.324;2023-09-12T12:29:11;20.17;;;7.27;;
64075;SDS011;50327;51.328;12.324;2023-09-12T12:31:37;23.30;;;7.10;;
64075;SDS011;50327;51.328;12.324;2023-09-12T12:34:02;26.88;;;7.22;;
64075;SDS011;50327;51.328;12.324;2023-09-12T12:36:28;19.80;;;7.68;;
64075;SDS011;50327;51.328;12.324;2023-09-12T12:38:54;30.70;;;7.10;;
64075;SDS011;50327;51.328;12.324;2023-09-12T12:41:22;35.08;;;10.02;;
64075;SDS011;50327;51.328;12.324;2023-09-12T12:43:49;27.98;;;8.45;;
64075;SDS011;50327;51.328;12.324;2023-09-12T12:46:15;29.42;;;7.28;;
64075;SDS011;50327;51.328;12.324;2023-09-12T12:48:42;17.60;;;6.38;;
64075;SDS011;50327;51.328;12.324;2023-09-12T12:51:28;21.77;;;7.32;;
64075;SDS011;50327;51.328;12.324;2023-09-12T12:53:55;16.65;;;5.53;;
64075;SDS011;50327;51.328;12.324;2023-09-12T12:56:28;28.48;;;6.90;;
64075;SDS011;50327;51.328;12.324;2023-09-12T12:59:00;35.40;;;6.78;;
64075;SDS011;50327;51.328;12.324;2023-09-12T13:01:28;25.92;;;5.72;;
64075;SDS011;50327;51.328;12.324;2023-09-12T13:03:53;19.10;;;5.65;;
64075;SDS011;50327;51.328;12.324;2023-09-12T13:06:19;19.05;;;7.30;;
64075;SDS011;50327;51.328;12.324;2023-09-12T13:08:45;28.15;;;6.88;;
64075;SDS011;50327;51.328;12.324;2023-09-12T13:11:11;32.60;;;6.50;;
64075;SDS011;50327;51.328;12.324;2023-09-12T13:13:37;22.80;;;7.13;;
64075;SDS011;50327;51.328;12.324;2023-09-12T13:16:03;29.67;;;6.60;;
64075;SDS011;50327;51.328;12.324;2023-09-12T13:18:30;26.90;;;6.35;;
64075;SDS011;50327;51.328;12.324;2023-09-12T13:20:55;28.25;;;6.72;;
64075;SDS011;50327;51.328;12.324;2023-09-12T13:23:20;23.33;;;7.10;;
64075;SDS011;50327;51.328;12.324;2023-09-12T13:25:46;19.90;;;5.60;;
64075;SDS011;50327;51.328;12.324;2023-09-12T13:28:11;27.13;;;6.43;;
64075;SDS011;50327;51.328;12.324;2023-09-12T13:30:36;21.17;;;6.37;;
64075;SDS011;50327;51.328;12.324;2023-09-12T13:33:01;28.58;;;5.95;;
64075;SDS011;50327;51.328;12.324;2023-09-12T13:35:26;26.40;;;5.57;;
64075;SDS011;50327;51.328;12.324;2023-09-12T13:37:52;18.15;;;6.13;;
64075;SDS011;50327;51.328;12.324;2023-09-12T13:40:17;27.98;;;5.68;;
64075;SDS011;50327;51.328;12.324;2023-09-12T13:42:42;21.50;;;6.63;;
64075;SDS011;50327;51.328;12.324;2023-09-12T13:45:08;16.13;;;5.30;;
64075;SDS011;50327;51.328;12.324;2023-09-12T13:47:33;22.48;;;6.20;;
64075;SDS011;50327;51.328;12.324;2023-09-12T13:49:58;32.00;;;7.07;;
64075;SDS011;50327;51.328;12.324;2023-09-12T13:52:26;22.97;;;6.13;;
64075;SDS011;50327;51.328;12.324;2023-09-12T13:54:51;17.98;;;5.35;;
64075;SDS011;50327;51.328;12.324;2023-09-12T13:57:17;21.23;;;5.87;;
64075;SDS011;50327;51.328;12.324;2023-09-12T13:59:42;23.20;;;6.05;;
64075;SDS011;50327;51.328;12.324;2023-09-12T14:02:07;21.83;;;6.10;;
64075;SDS011;50327;51.328;12.324;2023-09-12T14:04:32;23.17;;;5.63;;
64075;SDS011;50327;51.328;12.324;2023-09-12T14:06:58;23.95;;;5.88;;
64075;SDS011;50327;51.328;12.324;2023-09-12T14:09:23;14.57;;;5.15;;
64075;SDS011;50327;51.328;12.324;2023-09-12T14:11:48;25.07;;;6.27;;
64075;SDS011;50327;51.328;12.324;2023-09-12T14:14:13;20.37;;;5.53;;
64075;SDS011;50327;51.328;12.324;2023-09-12T14:16:39;24.38;;;5.78;;
64075;SDS011;50327;51.328;12.324;2023-09-12T14:19:04;31.43;;;5.90;;
64075;SDS011;50327;51.328;12.324;2023-09-12T14:21:29;20.17;;;5.93;;
64075;SDS011;50327;51.328;12.324;2023-09-12T14:23:54;18.70;;;5.20;;
64075;SDS011;50327;51.328;12.324;2023-09-12T14:26:20;18.13;;;5.35;;
64075;SDS011;50327;51.328;12.324;2023-09-12T14:28:45;19.87;;;5.23;;
64075;SDS011;50327;51.328;12.324;2023-09-12T14:31:11;15.45;;;5.30;;
64075;SDS011;50327;51.328;12.324;2023-09-12T14:33:39;28.08;;;5.65;;
64075;SDS011;50327;51.328;12.324;2023-09-12T14:36:05;23.00;;;5.18;;
64075;SDS011;50327;51.328;12.324;2023-09-12T14:38:30;26.67;;;5.85;;